MSC Poesia — 3EPL4 — position and weather

sailwx.info

Track history (hours):
 
Tides and Currents Weather Stations Pressure Air Temp Water Temp Dewpoint Dewpoint Depression Visibility Wind Speed Wind Dir Waves Ship Positions

MSC Poesia

Last reported at 2017-Nov-13 01:56 UTC. Time now 2017-Nov-19 04:55 UTC.
Position N 30°05' W 016°22'.

Length 293 m; draft 7.8 m.

Type: Ship. MMSI: 355931000.

Date/timePositionNaut miles runAvg speedWind from/ knotsBaromVisibWave heightAir tempDewpointWater temp
2017-Nov-13 01:56N 30°05' W 016°22'817.6
2017-Nov-13 01:30N 30°12' W 016°23'2217.4
2017-Nov-13 00:15N 30°34' W 016°28'617.3
2017-Nov-12 23:55N 30°39' W 016°29'817.3
2017-Nov-12 23:28N 30°47' W 016°30'818.1
2017-Nov-12 23:00N 30°55' W 016°32'1619.3
2017-Nov-12 22:12N 31°11' W 016°35'1319.3
2017-Nov-12 21:30N 31°24' W 016°38'1319.3
2017-Nov-12 20:51N 31°36' W 016°41'63 6.1
2017-Nov-12 10:29N 32°39' W 016°54'41413.8
2017-Nov-11 04:24N 37°26' W 010°51'1615.8
2017-Nov-11 03:23N 37°38' W 010°37'915.8
2017-Nov-11 02:49N 37°44' W 010°29'515.8
2017-Nov-11 02:30N 37°48' W 010°25'815.8
2017-Nov-11 02:00N 37°53' W 010°18'2115.8
2017-Nov-11 00:38N 38°10' W 009°60'215.8
2017-Nov-11 00:31N 38°11' W 009°58'815.7
2017-Nov-11 00:00N 38°16' W 009°50'815.9
2017-Nov-10 23:30N 38°21' W 009°43'815.7
2017-Nov-10 23:00N 38°27' W 009°36'815.8
2017-Nov-10 22:30N 38°32' W 009°28'815.7
2017-Nov-10 22:00N 38°38' W 009°21'714.3
2017-Nov-10 21:30N 38°41' W 009°13'5 9.9
2017-Nov-10 21:00N 38°43' W 009°07'0 0.3
2017-Nov-10 20:06N 38°43' W 009°07'0 0.0
2017-Nov-10 19:48N 38°43' W 009°07'0 0.0
2017-Nov-10 19:24N 38°43' W 009°07'0 0.0
2017-Nov-10 18:48N 38°43' W 009°07'0 0.0
2017-Nov-10 18:18N 38°43' W 009°07'0 0.0
2017-Nov-10 18:00N 38°43' W 009°07'0 0.0
2017-Nov-10 16:51N 38°43' W 009°07'0 0.0
2017-Nov-10 16:09N 38°43' W 009°07'0 0.0
2017-Nov-10 12:21N 38°43' W 009°07'1 4.4
2017-Nov-10 12:00N 38°42' W 009°09'5 9.8
2017-Nov-10 11:30N 38°41' W 009°15'713.9
2017-Nov-10 11:00N 38°37' W 009°22'917.0
2017-Nov-10 10:30N 38°29' W 009°23'817.0
2017-Nov-10 10:00N 38°20' W 009°23'917.0
2017-Nov-10 09:30N 38°12' W 009°23'917.1
2017-Nov-10 09:00N 38°03' W 009°22'917.1
2017-Nov-10 08:30N 37°55' W 009°22'917.2
2017-Nov-10 08:01N 37°46' W 009°23'1017.0
2017-Nov-10 07:26N 37°36' W 009°23'20916.5
2017-Nov-09 18:48N 35°59' W 005°32'720.7
2017-Nov-09 18:28N 36°01' W 005°24'23120.8
2017-Nov-09 07:23N 37°20' W 000°53'922.3
2017-Nov-09 07:00N 37°26' W 000°45'1121.8
2017-Nov-09 06:30N 37°33' W 000°35'1021.2
2017-Nov-09 06:01N 37°42' W 000°28'22721.8
2017-Nov-08 19:36N 40°59' E 001°58'220.1
2017-Nov-08 19:30N 41°01' E 001°59'1020.1
2017-Nov-08 19:00N 41°09' E 002°05'918.5
2017-Nov-08 18:30N 41°18' E 002°10'  
2017-Nov-04 23:08N 44°13' E 013°55'417.9
2017-Nov-04 22:55N 44°17' E 013°52'717.9
2017-Nov-04 22:30N 44°23' E 013°46'918.0
2017-Nov-04 22:00N 44°30' E 013°39'917.8
2017-Nov-04 21:30N 44°38' E 013°33'917.9
2017-Nov-04 21:00N 44°45' E 013°26'917.7
2017-Nov-04 20:30N 44°53' E 013°19'917.5
2017-Nov-04 20:00N 44°59' E 013°10'917.7
2017-Nov-04 19:30N 45°05' E 013°01'917.9
2017-Nov-04 19:00N 45°11' E 012°51'917.9
2017-Nov-04 18:30N 45°17' E 012°42'917.4
2017-Nov-04 18:00N 45°22' E 012°32'714.0
2017-Nov-04 17:31N 45°26' E 012°24'3 5.3
2017-Nov-04 17:00N 45°26' E 012°20'1 2.3
2017-Nov-04 16:28N 45°26' E 012°19'0 0.0
2017-Nov-04 15:58N 45°26' E 012°19'0 0.0
2017-Nov-04 15:28N 45°26' E 012°19'0 0.0
2017-Nov-04 14:58N 45°26' E 012°19'0 0.0
2017-Nov-04 14:28N 45°26' E 012°19'0 0.0
2017-Nov-04 13:58N 45°26' E 012°19'0 0.0
2017-Nov-04 13:28N 45°26' E 012°19'0 0.0
2017-Nov-04 12:58N 45°26' E 012°19'0 0.0
2017-Nov-04 12:28N 45°26' E 012°19'0 0.0
2017-Nov-04 11:58N 45°26' E 012°19'0 0.0
2017-Nov-04 11:28N 45°26' E 012°19'0 0.0
2017-Nov-04 10:58N 45°26' E 012°19'0 0.0
2017-Nov-04 10:28N 45°26' E 012°19'0 0.0
2017-Nov-04 09:58N 45°26' E 012°19'0 0.0
2017-Nov-04 09:28N 45°26' E 012°19'0 0.0
2017-Nov-04 08:58N 45°26' E 012°19'0 0.0
2017-Nov-04 08:28N 45°26' E 012°19'0 0.0
2017-Nov-04 07:58N 45°26' E 012°19'0 0.0
2017-Nov-04 07:28N 45°26' E 012°19'0 0.0
2017-Nov-04 06:58N 45°26' E 012°19'0 0.6
2017-Nov-04 06:30N 45°26' E 012°19'3 5.1
2017-Nov-04 06:01N 45°25' E 012°22'4 7.3
2017-Nov-04 05:31N 45°25' E 012°27'815.8
2017-Nov-04 05:00N 45°21' E 012°37'917.6
2017-Nov-04 04:30N 45°16' E 012°47'918.1
2017-Nov-04 04:00N 45°09' E 012°56'918.0
2017-Nov-04 03:30N 45°04' E 013°06'918.1
2017-Nov-04 03:01N 44°59' E 013°17'918.8
2017-Nov-04 02:31N 44°52' E 013°26'918.9
2017-Nov-04 02:00N 44°44' E 013°34'918.9
2017-Nov-04 01:31N 44°36' E 013°41'918.7
2017-Nov-04 01:00N 44°29' E 013°48'918.7
2017-Nov-04 00:30N 44°21' E 013°55'  
Track history (hours):
 
Tides and Currents Weather Stations Pressure Air Temp Water Temp Dewpoint Dewpoint Depression Visibility Wind Speed Wind Dir Waves Ship Positions

MSC Poesia

Last reported at 2017-Nov-13 01:56 UTC. Time now 2017-Nov-19 04:55 UTC.
Position N 30°05' W 016°22'.

Length 293 m; draft 7.8 m.

Type: Ship. MMSI: 355931000.

Date/timePositionNaut miles runAvg speedWind from/ knotsBaromVisibWave heightAir tempDewpointWater temp
2017-Nov-13 01:56N 30°05' W 016°22'817.6
2017-Nov-13 01:30N 30°12' W 016°23'2217.4
2017-Nov-13 00:15N 30°34' W 016°28'617.3
2017-Nov-12 23:55N 30°39' W 016°29'817.3
2017-Nov-12 23:28N 30°47' W 016°30'818.1
2017-Nov-12 23:00N 30°55' W 016°32'1619.3
2017-Nov-12 22:12N 31°11' W 016°35'1319.3
2017-Nov-12 21:30N 31°24' W 016°38'1319.3
2017-Nov-12 20:51N 31°36' W 016°41'63 6.1
2017-Nov-12 10:29N 32°39' W 016°54'41413.8
2017-Nov-11 04:24N 37°26' W 010°51'1615.8
2017-Nov-11 03:23N 37°38' W 010°37'915.8
2017-Nov-11 02:49N 37°44' W 010°29'515.8
2017-Nov-11 02:30N 37°48' W 010°25'815.8
2017-Nov-11 02:00N 37°53' W 010°18'2115.8
2017-Nov-11 00:38N 38°10' W 009°60'215.8
2017-Nov-11 00:31N 38°11' W 009°58'815.7
2017-Nov-11 00:00N 38°16' W 009°50'815.9
2017-Nov-10 23:30N 38°21' W 009°43'815.7
2017-Nov-10 23:00N 38°27' W 009°36'815.8
2017-Nov-10 22:30N 38°32' W 009°28'815.7
2017-Nov-10 22:00N 38°38' W 009°21'714.3
2017-Nov-10 21:30N 38°41' W 009°13'5 9.9
2017-Nov-10 21:00N 38°43' W 009°07'0 0.3
2017-Nov-10 20:06N 38°43' W 009°07'0 0.0
2017-Nov-10 19:48N 38°43' W 009°07'0 0.0
2017-Nov-10 19:24N 38°43' W 009°07'0 0.0
2017-Nov-10 18:48N 38°43' W 009°07'0 0.0
2017-Nov-10 18:18N 38°43' W 009°07'0 0.0
2017-Nov-10 18:00N 38°43' W 009°07'0 0.0
2017-Nov-10 16:51N 38°43' W 009°07'0 0.0
2017-Nov-10 16:09N 38°43' W 009°07'0 0.0
2017-Nov-10 12:21N 38°43' W 009°07'1 4.4
2017-Nov-10 12:00N 38°42' W 009°09'5 9.8
2017-Nov-10 11:30N 38°41' W 009°15'713.9
2017-Nov-10 11:00N 38°37' W 009°22'917.0
2017-Nov-10 10:30N 38°29' W 009°23'817.0
2017-Nov-10 10:00N 38°20' W 009°23'917.0
2017-Nov-10 09:30N 38°12' W 009°23'917.1
2017-Nov-10 09:00N 38°03' W 009°22'917.1
2017-Nov-10 08:30N 37°55' W 009°22'917.2
2017-Nov-10 08:01N 37°46' W 009°23'1017.0
2017-Nov-10 07:26N 37°36' W 009°23'20916.5
2017-Nov-09 18:48N 35°59' W 005°32'720.7
2017-Nov-09 18:28N 36°01' W 005°24'23120.8
2017-Nov-09 07:23N 37°20' W 000°53'922.3
2017-Nov-09 07:00N 37°26' W 000°45'1121.8
2017-Nov-09 06:30N 37°33' W 000°35'1021.2
2017-Nov-09 06:01N 37°42' W 000°28'22721.8
2017-Nov-08 19:36N 40°59' E 001°58'220.1
2017-Nov-08 19:30N 41°01' E 001°59'1020.1
2017-Nov-08 19:00N 41°09' E 002°05'918.5
2017-Nov-08 18:30N 41°18' E 002°10'  
2017-Nov-04 23:08N 44°13' E 013°55'417.9
2017-Nov-04 22:55N 44°17' E 013°52'717.9
2017-Nov-04 22:30N 44°23' E 013°46'918.0
2017-Nov-04 22:00N 44°30' E 013°39'917.8
2017-Nov-04 21:30N 44°38' E 013°33'917.9
2017-Nov-04 21:00N 44°45' E 013°26'917.7
2017-Nov-04 20:30N 44°53' E 013°19'917.5
2017-Nov-04 20:00N 44°59' E 013°10'917.7
2017-Nov-04 19:30N 45°05' E 013°01'917.9
2017-Nov-04 19:00N 45°11' E 012°51'917.9
2017-Nov-04 18:30N 45°17' E 012°42'917.4
2017-Nov-04 18:00N 45°22' E 012°32'714.0
2017-Nov-04 17:31N 45°26' E 012°24'3 5.3
2017-Nov-04 17:00N 45°26' E 012°20'1 2.3
2017-Nov-04 16:28N 45°26' E 012°19'0 0.0
2017-Nov-04 15:58N 45°26' E 012°19'0 0.0
2017-Nov-04 15:28N 45°26' E 012°19'0 0.0
2017-Nov-04 14:58N 45°26' E 012°19'0 0.0
2017-Nov-04 14:28N 45°26' E 012°19'0 0.0
2017-Nov-04 13:58N 45°26' E 012°19'0 0.0
2017-Nov-04 13:28N 45°26' E 012°19'0 0.0
2017-Nov-04 12:58N 45°26' E 012°19'0 0.0
2017-Nov-04 12:28N 45°26' E 012°19'0 0.0
2017-Nov-04 11:58N 45°26' E 012°19'0 0.0
2017-Nov-04 11:28N 45°26' E 012°19'0 0.0
2017-Nov-04 10:58N 45°26' E 012°19'0 0.0
2017-Nov-04 10:28N 45°26' E 012°19'0 0.0
2017-Nov-04 09:58N 45°26' E 012°19'0 0.0
2017-Nov-04 09:28N 45°26' E 012°19'0 0.0
2017-Nov-04 08:58N 45°26' E 012°19'0 0.0
2017-Nov-04 08:28N 45°26' E 012°19'0 0.0
2017-Nov-04 07:58N 45°26' E 012°19'0 0.0
2017-Nov-04 07:28N 45°26' E 012°19'0 0.0
2017-Nov-04 06:58N 45°26' E 012°19'0 0.6
2017-Nov-04 06:30N 45°26' E 012°19'3 5.1
2017-Nov-04 06:01N 45°25' E 012°22'4 7.3
2017-Nov-04 05:31N 45°25' E 012°27'815.8
2017-Nov-04 05:00N 45°21' E 012°37'917.6
2017-Nov-04 04:30N 45°16' E 012°47'918.1
2017-Nov-04 04:00N 45°09' E 012°56'918.0
2017-Nov-04 03:30N 45°04' E 013°06'918.1
2017-Nov-04 03:01N 44°59' E 013°17'918.8
2017-Nov-04 02:31N 44°52' E 013°26'918.9
2017-Nov-04 02:00N 44°44' E 013°34'918.9
2017-Nov-04 01:31N 44°36' E 013°41'918.7
2017-Nov-04 01:00N 44°29' E 013°48'918.7
2017-Nov-04 00:30N 44°21' E 013°55'  

Dump ship's entire track history